createdAt,value
2022-10-24T00:02:23.794Z,100.00
2022-10-24T00:04:50.321Z,100.00
2022-10-24T00:07:16.837Z,100.00
2022-10-24T00:09:43.368Z,100.00
2022-10-24T00:12:09.998Z,100.00
2022-10-24T00:14:36.772Z,100.00
2022-10-24T00:17:04.208Z,100.00
2022-10-24T00:19:30.712Z,100.00
2022-10-24T00:21:57.160Z,100.00
2022-10-24T00:24:25.148Z,100.00
2022-10-24T00:26:52.210Z,100.00
2022-10-24T00:29:18.824Z,100.00
2022-10-24T00:31:45.390Z,100.00
2022-10-24T00:34:11.881Z,100.00
2022-10-24T00:36:38.769Z,100.00
2022-10-24T00:39:05.228Z,100.00
2022-10-24T00:41:38.083Z,100.00
2022-10-24T00:44:17.727Z,100.00
2022-10-24T00:46:50.023Z,100.00
2022-10-24T00:49:21.268Z,100.00
2022-10-24T00:51:51.018Z,100.00
2022-10-24T00:54:17.964Z,100.00
2022-10-24T00:56:55.243Z,100.00
2022-10-24T00:59:22.306Z,100.00
2022-10-24T01:01:49.139Z,100.00
2022-10-24T01:04:15.891Z,100.00
2022-10-24T01:06:47.931Z,100.00
2022-10-24T01:09:14.325Z,100.00
2022-10-24T01:11:56.715Z,100.00
2022-10-24T01:14:37.961Z,100.00
2022-10-24T01:17:09.577Z,100.00
2022-10-24T01:19:38.712Z,100.00
2022-10-24T01:22:22.662Z,100.00
2022-10-24T01:24:51.871Z,100.00
2022-10-24T01:27:33.640Z,100.00
2022-10-24T01:30:13.324Z,100.00
2022-10-24T01:33:44.789Z,100.00
2022-10-24T01:36:18.329Z,100.00
2022-10-24T01:38:50.487Z,100.00
2022-10-24T01:41:21.119Z,100.00
2022-10-24T01:46:29.781Z,100.00
2022-10-24T01:49:09.520Z,100.00
2022-10-24T01:51:38.550Z,100.00
2022-10-24T01:54:07.116Z,100.00
2022-10-24T01:56:33.705Z,100.00
2022-10-24T01:59:29.397Z,100.00
2022-10-24T02:02:08.385Z,100.00
2022-10-24T02:04:41.013Z,100.00
2022-10-24T02:07:10.265Z,100.00
2022-10-24T02:09:38.968Z,100.00
2022-10-24T02:12:09.346Z,100.00
2022-10-24T02:14:46.165Z,100.00
2022-10-24T02:17:12.816Z,100.00
2022-10-24T02:19:39.337Z,100.00
2022-10-24T02:22:23.556Z,100.00
2022-10-24T02:24:55.858Z,100.00
2022-10-24T02:27:28.590Z,100.00
2022-10-24T02:30:06.562Z,100.00
2022-10-24T02:32:38.329Z,100.00
2022-10-24T02:35:06.701Z,100.00
2022-10-24T02:37:39.822Z,100.00
2022-10-24T02:40:08.765Z,100.00
2022-10-24T02:42:36.807Z,100.00
2022-10-24T02:45:04.006Z,100.00
2022-10-24T02:47:32.539Z,100.00
2022-10-24T02:49:59.060Z,100.00
2022-10-24T02:52:26.249Z,100.00
2022-10-24T02:54:52.745Z,100.00
2022-10-24T02:57:21.405Z,100.00
2022-10-24T02:59:47.838Z,100.00
2022-10-24T03:02:14.332Z,100.00
2022-10-24T03:04:40.805Z,100.00
2022-10-24T03:07:07.598Z,100.00
2022-10-24T03:09:34.708Z,100.00
2022-10-24T03:12:01.291Z,100.00
2022-10-24T03:14:27.905Z,100.00
2022-10-24T03:16:54.352Z,100.00
2022-10-24T03:19:20.879Z,100.00
2022-10-24T03:21:47.369Z,100.00
2022-10-24T03:24:15.170Z,100.00
2022-10-24T03:26:52.098Z,100.00
2022-10-24T03:29:19.282Z,100.00
2022-10-24T03:31:46.148Z,100.00
2022-10-24T03:34:12.682Z,100.00
2022-10-24T03:36:39.249Z,100.00
2022-10-24T03:39:05.785Z,100.00
2022-10-24T03:41:32.303Z,100.00
2022-10-24T03:43:58.781Z,100.00
2022-10-24T03:46:25.336Z,100.00
2022-10-24T03:48:51.891Z,100.00
2022-10-24T03:51:18.391Z,100.00
2022-10-24T03:53:44.921Z,100.00
2022-10-24T03:56:11.522Z,100.00
2022-10-24T03:58:38.013Z,100.00
2022-10-24T04:01:04.669Z,100.00
2022-10-24T04:03:31.259Z,100.00
2022-10-24T04:05:57.702Z,100.00
2022-10-24T04:08:24.242Z,100.00
2022-10-24T04:10:50.811Z,100.00
2022-10-24T04:13:17.330Z,100.00
2022-10-24T04:15:43.825Z,100.00
2022-10-24T04:18:10.386Z,100.00
2022-10-24T04:20:36.954Z,100.00
2022-10-24T04:23:04.574Z,100.00
2022-10-24T04:25:31.247Z,100.00
2022-10-24T04:27:57.693Z,100.00
2022-10-24T04:30:24.199Z,100.00
2022-10-24T04:32:50.643Z,100.00
2022-10-24T04:35:17.329Z,100.00
2022-10-24T04:37:43.778Z,100.00
2022-10-24T04:40:10.695Z,100.00
2022-10-24T04:42:37.470Z,100.00
2022-10-24T04:45:04.199Z,100.00
2022-10-24T04:47:30.645Z,100.00
2022-10-24T04:49:57.202Z,100.00
2022-10-24T04:52:23.706Z,100.00
2022-10-24T04:54:50.186Z,100.00
2022-10-24T04:57:16.669Z,100.00
2022-10-24T04:59:43.165Z,100.00
2022-10-24T05:02:09.670Z,100.00
2022-10-24T05:04:36.177Z,100.00
2022-10-24T05:07:02.774Z,100.00
2022-10-24T05:09:29.246Z,100.00
2022-10-24T05:11:56.498Z,100.00
2022-10-24T05:14:23.593Z,100.00
2022-10-24T05:16:50.286Z,100.00
2022-10-24T05:19:17.385Z,100.00
2022-10-24T05:21:43.817Z,100.00
2022-10-24T05:24:10.392Z,98.88
2022-10-24T05:26:36.921Z,100.00
2022-10-24T05:29:03.676Z,99.44
2022-10-24T05:34:01.706Z,100.00
2022-10-24T05:36:28.149Z,100.00
2022-10-24T05:38:54.614Z,100.00
2022-10-24T05:41:21.073Z,98.47
2022-10-24T05:43:47.592Z,96.91
2022-10-24T05:46:14.044Z,95.95
2022-10-24T05:48:40.558Z,95.13
2022-10-24T05:51:07.080Z,96.36
2022-10-24T05:53:33.584Z,96.60
2022-10-24T05:56:00.059Z,95.93
2022-10-24T05:58:27.455Z,98.88
2022-10-24T06:00:54.361Z,95.42
2022-10-24T06:03:21.579Z,97.96
2022-10-24T06:05:48.547Z,96.82
2022-10-24T06:08:15.012Z,97.44
2022-10-24T06:10:41.607Z,98.35
2022-10-24T06:13:08.226Z,100.00
2022-10-24T06:15:34.712Z,97.39
2022-10-24T06:18:01.181Z,98.00
2022-10-24T06:20:27.807Z,98.81
2022-10-24T06:22:54.295Z,98.81
2022-10-24T06:25:20.785Z,100.00
2022-10-24T06:27:48.482Z,100.00
2022-10-24T06:30:15.220Z,100.00
2022-10-24T06:32:44.406Z,100.00
2022-10-24T06:35:13.457Z,100.00
2022-10-24T06:37:42.870Z,100.00
2022-10-24T06:40:12.613Z,98.64
2022-10-24T06:42:39.114Z,100.00
2022-10-24T06:45:06.358Z,100.00
2022-10-24T06:47:32.930Z,100.00
2022-10-24T06:49:59.394Z,100.00
2022-10-24T06:52:25.889Z,100.00
2022-10-24T06:54:52.374Z,100.00
2022-10-24T06:57:18.857Z,100.00
2022-10-24T06:59:45.547Z,100.00
2022-10-24T07:02:16.560Z,100.00
2022-10-24T07:04:43.356Z,100.00
2022-10-24T07:07:16.029Z,100.00
2022-10-24T07:09:42.610Z,100.00
2022-10-24T07:12:09.488Z,100.00
2022-10-24T07:14:36.236Z,100.00
2022-10-24T07:17:04.404Z,100.00
2022-10-24T07:19:33.878Z,100.00
2022-10-24T07:22:03.160Z,100.00
2022-10-24T07:24:29.661Z,100.00
2022-10-24T07:26:56.145Z,100.00
2022-10-24T07:29:22.609Z,99.49
2022-10-24T07:31:49.144Z,100.00
2022-10-24T07:34:16.356Z,98.61
2022-10-24T07:36:43.911Z,98.85
2022-10-24T07:39:11.578Z,96.17
2022-10-24T07:41:41.242Z,96.60
2022-10-24T07:44:08.211Z,96.58
2022-10-24T07:46:34.909Z,95.54
2022-10-24T07:49:01.420Z,96.36
2022-10-24T07:51:29.668Z,94.87
2022-10-24T07:53:59.610Z,90.96
2022-10-24T07:56:26.323Z,88.41
2022-10-24T07:58:52.910Z,88.75
2022-10-24T08:01:22.127Z,87.22
2022-10-24T08:03:49.288Z,86.22
2022-10-24T08:06:19.434Z,86.56
2022-10-24T08:08:46.177Z,83.85
2022-10-24T08:11:21.978Z,84.43
2022-10-24T08:13:49.761Z,83.24
2022-10-24T08:16:18.345Z,83.48
2022-10-24T08:18:45.016Z,82.18
2022-10-24T08:21:14.143Z,80.56
2022-10-24T08:23:44.086Z,82.04
2022-10-24T08:26:13.783Z,79.99
2022-10-24T08:28:41.247Z,79.39
2022-10-24T08:31:11.767Z,78.09
2022-10-24T08:33:38.922Z,77.15
2022-10-24T08:36:13.424Z,78.27
2022-10-24T08:38:40.051Z,75.77
2022-10-24T08:41:06.979Z,75.74
2022-10-24T08:43:33.718Z,73.53
2022-10-24T08:46:28.371Z,74.29
2022-10-24T08:49:08.975Z,72.95
2022-10-24T08:51:43.840Z,73.99
2022-10-24T08:54:14.696Z,74.93
2022-10-24T08:56:41.641Z,71.69
2022-10-24T08:59:12.304Z,73.07
2022-10-24T09:01:50.622Z,73.43
2022-10-24T09:04:21.901Z,74.38
2022-10-24T09:06:51.780Z,71.23
2022-10-24T09:09:18.720Z,73.42
2022-10-24T09:11:48.344Z,75.30
2022-10-24T09:14:18.010Z,72.93
2022-10-24T09:16:49.504Z,70.24
2022-10-24T09:19:20.867Z,71.77
2022-10-24T09:21:48.405Z,70.90
2022-10-24T09:24:27.109Z,68.82
2022-10-24T09:26:53.944Z,68.31
2022-10-24T09:29:20.508Z,68.47
2022-10-24T09:31:49.441Z,65.59
2022-10-24T09:34:17.464Z,67.40
2022-10-24T09:36:44.743Z,65.82
2022-10-24T09:39:23.630Z,68.12
2022-10-24T09:41:50.474Z,66.36
2022-10-24T09:44:49.520Z,65.71
2022-10-24T09:47:27.884Z,66.78
2022-10-24T09:49:55.064Z,66.01
2022-10-24T09:52:24.643Z,64.27
2022-10-24T09:55:17.884Z,63.85
2022-10-24T09:57:45.309Z,63.62
2022-10-24T10:00:32.911Z,64.24
2022-10-24T10:03:02.501Z,63.83
2022-10-24T10:05:44.293Z,64.03
2022-10-24T10:08:18.823Z,64.37
2022-10-24T10:10:56.595Z,63.73
2022-10-24T10:13:25.304Z,62.62
2022-10-24T10:16:04.007Z,61.99
2022-10-24T10:18:39.633Z,59.37
2022-10-24T10:21:25.165Z,56.79
2022-10-24T10:23:56.897Z,55.14
2022-10-24T10:26:24.994Z,55.51
2022-10-24T10:29:06.841Z,54.37
2022-10-24T10:31:43.971Z,52.89
2022-10-24T10:34:30.974Z,50.78
2022-10-24T10:37:18.938Z,51.42
2022-10-24T10:40:08.344Z,54.35
2022-10-24T10:42:41.930Z,56.40
2022-10-24T10:45:22.225Z,56.28
2022-10-24T10:48:07.505Z,59.21
2022-10-24T10:50:48.334Z,57.47
2022-10-24T10:53:40.358Z,57.19
2022-10-24T10:56:15.692Z,58.21
2022-10-24T10:58:52.095Z,59.03
2022-10-24T11:01:27.982Z,61.21
2022-10-24T11:04:21.014Z,59.99
2022-10-24T11:07:14.954Z,56.30
2022-10-24T11:09:46.771Z,55.45
2022-10-24T11:12:19.314Z,54.84
2022-10-24T11:15:00.686Z,56.42
2022-10-24T11:17:32.373Z,58.64
2022-10-24T11:20:07.449Z,57.43
2022-10-24T11:22:50.898Z,56.70
2022-10-24T11:26:02.450Z,49.23
2022-10-24T11:28:44.617Z,46.23
2022-10-24T11:31:18.705Z,45.22
2022-10-24T11:34:00.517Z,50.05
2022-10-24T11:37:06.061Z,51.81
2022-10-24T11:39:35.585Z,52.14
2022-10-24T11:42:12.665Z,47.73
2022-10-24T11:45:01.141Z,47.10
2022-10-24T11:47:27.595Z,47.58
2022-10-24T11:50:00.987Z,51.57
2022-10-24T11:52:30.916Z,49.42
2022-10-24T11:55:13.308Z,52.04
2022-10-24T11:57:45.381Z,56.00
2022-10-24T12:00:48.325Z,55.46
2022-10-24T12:03:24.762Z,54.06
2022-10-24T12:06:20.226Z,54.56
2022-10-24T12:09:05.494Z,55.63
2022-10-24T12:11:53.986Z,57.25
2022-10-24T12:14:29.760Z,54.07
2022-10-24T12:17:18.958Z,54.68
2022-10-24T12:19:46.588Z,54.36
2022-10-24T12:22:23.631Z,51.56
2022-10-24T12:25:03.955Z,52.70
2022-10-24T12:27:35.652Z,53.84
2022-10-24T12:30:21.764Z,54.11
2022-10-24T12:32:52.338Z,55.71
2022-10-24T12:35:31.711Z,55.63
2022-10-24T12:37:58.873Z,56.73
2022-10-24T12:40:52.124Z,57.38
2022-10-24T12:43:36.488Z,56.59
2022-10-24T12:46:18.852Z,56.48
2022-10-24T12:48:58.403Z,56.47
2022-10-24T12:51:40.642Z,56.21
2022-10-24T12:54:13.316Z,55.11
2022-10-24T12:57:09.396Z,54.55
2022-10-24T12:59:51.450Z,52.88
2022-10-24T13:02:21.123Z,51.55
2022-10-24T13:05:07.964Z,52.24
2022-10-24T13:07:47.119Z,53.62
2022-10-24T13:10:37.624Z,53.84
2022-10-24T13:13:29.020Z,54.85
2022-10-24T13:16:10.922Z,54.50
2022-10-24T13:19:17.142Z,54.58
2022-10-24T13:21:47.594Z,57.23
2022-10-24T13:24:16.841Z,56.24
2022-10-24T13:26:58.420Z,55.84
2022-10-24T13:29:27.968Z,56.08
2022-10-24T13:32:16.318Z,53.78
2022-10-24T13:34:54.718Z,53.07
2022-10-24T13:37:34.946Z,52.20
2022-10-24T13:40:33.758Z,50.71
2022-10-24T13:43:07.542Z,52.19
2022-10-24T13:46:00.177Z,53.80
2022-10-24T13:48:34.819Z,53.94
2022-10-24T13:51:20.213Z,52.68
2022-10-24T13:53:58.963Z,54.46
2022-10-24T13:56:26.488Z,52.51
2022-10-24T13:58:53.117Z,52.09
2022-10-24T14:01:27.329Z,53.65
2022-10-24T14:03:55.405Z,53.53
2022-10-24T14:06:27.580Z,55.70
2022-10-24T14:09:06.736Z,56.58
2022-10-24T14:11:52.855Z,56.27
2022-10-24T14:15:27.183Z,55.75
2022-10-24T14:18:54.804Z,55.88
2022-10-24T14:25:30.844Z,59.96
2022-10-24T14:28:32.159Z,59.70
2022-10-24T14:31:05.498Z,61.02
2022-10-24T14:33:42.065Z,59.80
2022-10-24T14:36:09.495Z,58.51
2022-10-24T14:38:36.473Z,58.46
2022-10-24T14:41:10.431Z,59.52
2022-10-24T14:43:42.194Z,59.58
2022-10-24T14:46:12.264Z,60.72
2022-10-24T14:48:41.968Z,59.21
2022-10-24T14:51:20.937Z,60.56
2022-10-24T14:53:50.129Z,59.52
2022-10-24T14:56:36.812Z,60.66
2022-10-24T14:59:07.189Z,61.88
2022-10-24T15:01:34.057Z,61.58
2022-10-24T15:04:03.584Z,63.83
2022-10-24T15:06:38.230Z,63.53
2022-10-24T15:09:10.914Z,64.16
2022-10-24T15:12:03.271Z,63.32
2022-10-24T15:14:41.340Z,62.72
2022-10-24T15:17:17.099Z,62.01
2022-10-24T15:19:46.095Z,62.40
2022-10-24T15:22:30.195Z,62.93
2022-10-24T15:25:00.133Z,63.44
2022-10-24T15:27:30.551Z,62.91
2022-10-24T15:29:57.307Z,64.38
2022-10-24T15:32:24.368Z,64.45
2022-10-24T15:34:54.350Z,65.87
2022-10-24T15:37:24.310Z,66.28
2022-10-24T15:39:52.890Z,66.68
2022-10-24T15:42:22.554Z,67.94
2022-10-24T15:44:49.412Z,67.08
2022-10-24T15:47:16.019Z,69.80
2022-10-24T15:49:42.650Z,67.26
2022-10-24T15:52:15.515Z,68.60
2022-10-24T15:54:42.284Z,66.40
2022-10-24T15:57:13.147Z,69.50
2022-10-24T15:59:39.949Z,70.93
2022-10-24T16:02:16.291Z,67.07
2022-10-24T16:04:42.977Z,68.30
2022-10-24T16:07:10.590Z,67.44
2022-10-24T16:09:37.240Z,69.08
2022-10-24T16:12:04.335Z,68.09
2022-10-24T16:14:30.966Z,71.06
2022-10-24T16:16:58.469Z,70.08
2022-10-24T16:19:28.966Z,76.44
2022-10-24T16:21:59.590Z,69.51
2022-10-24T16:24:27.229Z,70.77
2022-10-24T16:26:54.147Z,74.21
2022-10-24T16:29:20.822Z,76.64
2022-10-24T16:31:49.028Z,78.17
2022-10-24T16:34:15.586Z,81.15
2022-10-24T16:36:42.262Z,80.60
2022-10-24T16:39:09.254Z,79.60
2022-10-24T16:41:35.963Z,82.03
2022-10-24T16:44:03.723Z,86.34
2022-10-24T16:46:30.684Z,86.22
2022-10-24T16:48:58.255Z,85.63
2022-10-24T16:51:32.418Z,87.78
2022-10-24T16:54:01.142Z,89.02
2022-10-24T16:56:28.106Z,88.31
2022-10-24T16:58:54.630Z,87.60
2022-10-24T17:01:23.159Z,87.39
2022-10-24T17:03:49.775Z,88.22
2022-10-24T17:06:16.344Z,88.69
2022-10-24T17:08:43.333Z,89.15
2022-10-24T17:11:32.279Z,88.54
2022-10-24T17:13:58.028Z,88.59
2022-10-24T17:16:24.734Z,89.63
2022-10-24T17:19:05.420Z,89.88
2022-10-24T17:21:39.053Z,91.10
2022-10-24T17:24:10.303Z,93.66
2022-10-24T17:26:36.957Z,93.11
2022-10-24T17:29:04.735Z,94.85
2022-10-24T17:31:31.520Z,95.82
2022-10-24T17:33:58.343Z,96.58
2022-10-24T17:36:28.124Z,96.40
2022-10-24T17:39:07.616Z,96.30
2022-10-24T17:41:40.738Z,97.01
2022-10-24T17:44:14.298Z,97.54
2022-10-24T17:46:40.998Z,99.55
2022-10-24T17:49:10.540Z,99.16
2022-10-24T17:51:39.866Z,100.00
2022-10-24T17:54:09.088Z,100.00
2022-10-24T17:56:35.786Z,100.00
2022-10-24T17:59:02.543Z,100.00
2022-10-24T18:01:29.250Z,100.00
2022-10-24T18:03:55.902Z,100.00
2022-10-24T18:06:22.484Z,100.00
2022-10-24T18:08:53.355Z,100.00
2022-10-24T18:11:19.932Z,100.00
2022-10-24T18:13:46.421Z,100.00
2022-10-24T18:16:15.709Z,100.00
2022-10-24T18:18:43.911Z,100.00
2022-10-24T18:23:46.715Z,100.00
2022-10-24T18:26:17.838Z,100.00
2022-10-24T18:28:46.730Z,100.00
2022-10-24T18:31:15.946Z,100.00
2022-10-24T18:33:43.255Z,100.00
2022-10-24T18:36:25.657Z,100.00
2022-10-24T18:38:59.094Z,100.00
2022-10-24T18:41:37.572Z,100.00
2022-10-24T18:44:23.213Z,100.00
2022-10-24T18:46:51.815Z,100.00
2022-10-24T18:49:19.276Z,100.00
2022-10-24T18:52:10.439Z,100.00
2022-10-24T18:54:53.649Z,100.00
2022-10-24T18:57:27.090Z,100.00
2022-10-24T18:59:54.815Z,100.00
2022-10-24T19:05:25.010Z,100.00
2022-10-24T19:07:51.936Z,100.00
2022-10-24T19:10:27.073Z,100.00
2022-10-24T19:12:57.413Z,100.00
2022-10-24T19:15:24.460Z,100.00
2022-10-24T19:17:51.774Z,100.00
2022-10-24T19:20:21.432Z,100.00
2022-10-24T19:22:48.667Z,100.00
2022-10-24T19:25:16.571Z,100.00
2022-10-24T19:27:43.533Z,100.00
2022-10-24T19:30:11.620Z,100.00
2022-10-24T19:32:38.329Z,100.00
2022-10-24T19:35:05.236Z,100.00
2022-10-24T19:37:31.810Z,100.00
2022-10-24T19:39:58.303Z,100.00
2022-10-24T19:42:24.894Z,100.00
2022-10-24T19:44:54.466Z,100.00
2022-10-24T19:47:21.769Z,100.00
2022-10-24T19:49:49.404Z,100.00
2022-10-24T19:52:16.177Z,100.00
2022-10-24T19:54:42.724Z,100.00
2022-10-24T19:57:09.519Z,100.00
2022-10-24T19:59:36.262Z,100.00
2022-10-24T20:02:04.348Z,100.00
2022-10-24T20:04:31.560Z,100.00
2022-10-24T20:06:58.113Z,100.00
2022-10-24T20:09:24.650Z,100.00
2022-10-24T20:11:51.194Z,100.00
2022-10-24T20:14:17.898Z,99.24
2022-10-24T20:16:44.425Z,99.50
2022-10-24T20:19:10.948Z,99.06
2022-10-24T20:21:37.754Z,97.32
2022-10-24T20:24:08.805Z,97.01
2022-10-24T20:26:36.116Z,98.19
2022-10-24T20:29:03.827Z,96.91
2022-10-24T20:31:34.041Z,97.42
2022-10-24T20:34:07.052Z,98.79
2022-10-24T20:36:35.779Z,99.30
2022-10-24T20:39:03.221Z,97.21
2022-10-24T20:41:29.965Z,96.87
2022-10-24T20:43:56.654Z,97.58
2022-10-24T20:46:23.239Z,98.28
2022-10-24T20:48:49.746Z,96.64
2022-10-24T20:51:18.973Z,97.96
2022-10-24T20:53:45.588Z,99.19
2022-10-24T20:56:14.929Z,97.00
2022-10-24T20:58:43.024Z,95.52
2022-10-24T21:01:12.681Z,95.68
2022-10-24T21:03:39.498Z,97.21
2022-10-24T21:06:14.244Z,97.00
2022-10-24T21:08:40.816Z,97.16
2022-10-24T21:11:07.799Z,96.81
2022-10-24T21:13:34.304Z,98.45
2022-10-24T21:16:02.077Z,100.00
2022-10-24T21:18:28.555Z,100.00
2022-10-24T21:20:54.970Z,100.00
2022-10-24T21:23:21.422Z,99.08
2022-10-24T21:25:47.916Z,99.74
2022-10-24T21:28:14.406Z,99.27
2022-10-24T21:30:40.867Z,100.00
2022-10-24T21:33:10.589Z,100.00
2022-10-24T21:35:39.909Z,97.19
2022-10-24T21:38:06.488Z,95.72
2022-10-24T21:40:32.968Z,95.49
2022-10-24T21:43:00.961Z,97.43
2022-10-24T21:45:27.456Z,94.80
2022-10-24T21:47:53.891Z,96.86
2022-10-24T21:50:20.378Z,99.20
2022-10-24T21:52:47.111Z,96.63
2022-10-24T21:55:13.879Z,97.77
2022-10-24T21:57:40.328Z,95.43
2022-10-24T22:00:07.550Z,97.27
2022-10-24T22:02:34.082Z,94.73
2022-10-24T22:05:00.613Z,98.28
2022-10-24T22:09:58.448Z,95.42
2022-10-24T22:12:25.268Z,96.12
2022-10-24T22:14:51.706Z,94.97
2022-10-24T22:17:18.158Z,95.79
2022-10-24T22:19:44.656Z,96.89
2022-10-24T22:22:11.106Z,97.50
2022-10-24T22:24:37.592Z,97.34
2022-10-24T22:27:04.116Z,96.33
2022-10-24T22:29:30.599Z,98.66
2022-10-24T22:31:57.365Z,97.58
2022-10-24T22:34:25.384Z,99.02
2022-10-24T22:37:24.848Z,100.00
2022-10-24T22:39:51.621Z,100.00
2022-10-24T22:42:20.203Z,100.00
2022-10-24T22:44:47.919Z,100.00
2022-10-24T22:48:03.129Z,100.00
2022-10-24T22:50:54.705Z,100.00
2022-10-24T22:53:31.095Z,100.00
2022-10-24T22:56:22.469Z,100.00
2022-10-24T22:58:49.548Z,100.00
2022-10-24T23:01:23.989Z,100.00
2022-10-24T23:04:18.003Z,100.00
2022-10-24T23:06:48.548Z,100.00
2022-10-24T23:09:15.028Z,100.00
2022-10-24T23:11:41.975Z,100.00
2022-10-24T23:14:10.251Z,100.00
2022-10-24T23:16:50.257Z,100.00
2022-10-24T23:19:20.481Z,100.00
2022-10-24T23:21:52.528Z,100.00
2022-10-24T23:24:19.457Z,100.00
2022-10-24T23:26:54.862Z,100.00
2022-10-24T23:29:33.109Z,100.00
2022-10-24T23:32:00.322Z,100.00
2022-10-24T23:34:27.634Z,100.00
2022-10-24T23:37:03.827Z,100.00
2022-10-24T23:39:33.220Z,100.00
2022-10-24T23:42:01.042Z,100.00
2022-10-24T23:44:27.971Z,100.00
2022-10-24T23:47:05.683Z,100.00
2022-10-24T23:49:40.035Z,100.00
2022-10-24T23:52:28.534Z,100.00
2022-10-24T23:54:55.324Z,100.00
2022-10-24T23:57:22.075Z,100.00
2022-10-24T23:59:48.527Z,100.00
